sensor_id;sensor_type;location;lat;lon;timestamp;P1;durP1;ratioP1;P2;durP2;ratioP2
6499;SDS011;3283;52.330;9.772;2022-12-07T05:02:31;245.67;;;102.13;;
6499;SDS011;3283;52.330;9.772;2022-12-07T05:04:56;91.80;;;77.67;;
6499;SDS011;3283;52.330;9.772;2022-12-07T05:07:22;48.03;;;17.07;;
6499;SDS011;3283;52.330;9.772;2022-12-07T05:09:47;40.77;;;13.63;;
6499;SDS011;3283;52.330;9.772;2022-12-07T05:12:13;37.73;;;12.00;;
6499;SDS011;3283;52.330;9.772;2022-12-07T05:14:38;41.30;;;13.27;;
6499;SDS011;3283;52.330;9.772;2022-12-07T05:17:03;46.80;;;13.63;;
6499;SDS011;3283;52.330;9.772;2022-12-07T05:19:29;38.57;;;12.80;;
6499;SDS011;3283;52.330;9.772;2022-12-07T05:21:54;36.20;;;12.20;;
6499;SDS011;3283;52.330;9.772;2022-12-07T05:24:20;37.17;;;13.20;;
6499;SDS011;3283;52.330;9.772;2022-12-07T05:26:45;43.70;;;15.47;;
6499;SDS011;3283;52.330;9.772;2022-12-07T05:29:14;70.20;;;42.50;;
6499;SDS011;3283;52.330;9.772;2022-12-07T05:31:41;62.00;;;38.33;;
6499;SDS011;3283;52.330;9.772;2022-12-07T05:34:07;54.73;;;30.63;;
6499;SDS011;3283;52.330;9.772;2022-12-07T05:36:33;73.63;;;41.47;;
6499;SDS011;3283;52.330;9.772;2022-12-07T05:38:58;100.37;;;59.87;;
6499;SDS011;3283;52.330;9.772;2022-12-07T05:41:24;203.90;;;85.20;;
6499;SDS011;3283;52.330;9.772;2022-12-07T05:44:08;208.47;;;79.67;;
6499;SDS011;3283;52.330;9.772;2022-12-07T05:46:34;309.70;;;90.53;;
6499;SDS011;3283;52.330;9.772;2022-12-07T05:48:59;33.53;;;8.93;;
6499;SDS011;3283;52.330;9.772;2022-12-07T05:51:25;42.43;;;11.10;;
6499;SDS011;3283;52.330;9.772;2022-12-07T05:53:51;59.23;;;13.27;;
6499;SDS011;3283;52.330;9.772;2022-12-07T05:56:16;36.23;;;10.73;;
6499;SDS011;3283;52.330;9.772;2022-12-07T05:58:42;33.40;;;9.30;;
6499;SDS011;3283;52.330;9.772;2022-12-07T06:01:26;35.50;;;10.60;;
6499;SDS011;3283;52.330;9.772;2022-12-07T06:03:52;81.80;;;19.13;;
6499;SDS011;3283;52.330;9.772;2022-12-07T06:06:17;238.37;;;80.63;;
6499;SDS011;3283;52.330;9.772;2022-12-07T06:08:43;309.93;;;85.83;;
6499;SDS011;3283;52.330;9.772;2022-12-07T06:11:08;305.23;;;85.20;;
6499;SDS011;3283;52.330;9.772;2022-12-07T06:13:52;312.80;;;97.37;;
6499;SDS011;3283;52.330;9.772;2022-12-07T06:16:17;313.53;;;89.40;;
6499;SDS011;3283;52.330;9.772;2022-12-07T06:18:43;331.87;;;93.40;;
6499;SDS011;3283;52.330;9.772;2022-12-07T06:21:08;333.10;;;88.03;;
6499;SDS011;3283;52.330;9.772;2022-12-07T06:23:33;361.13;;;96.77;;
6499;SDS011;3283;52.330;9.772;2022-12-07T06:25:59;349.87;;;94.00;;
6499;SDS011;3283;52.330;9.772;2022-12-07T06:28:24;331.60;;;91.53;;
6499;SDS011;3283;52.330;9.772;2022-12-07T06:30:57;358.90;;;92.00;;
6499;SDS011;3283;52.330;9.772;2022-12-07T06:33:28;372.87;;;100.17;;
6499;SDS011;3283;52.330;9.772;2022-12-07T06:35:54;356.47;;;92.47;;
6499;SDS011;3283;52.330;9.772;2022-12-07T06:38:20;315.77;;;92.80;;
6499;SDS011;3283;52.330;9.772;2022-12-07T06:40:46;283.97;;;84.40;;
6499;SDS011;3283;52.330;9.772;2022-12-07T06:43:12;284.50;;;90.47;;
6499;SDS011;3283;52.330;9.772;2022-12-07T06:45:37;275.17;;;81.10;;
6499;SDS011;3283;52.330;9.772;2022-12-07T06:48:02;322.03;;;92.70;;
6499;SDS011;3283;52.330;9.772;2022-12-07T06:50:28;359.33;;;91.73;;
6499;SDS011;3283;52.330;9.772;2022-12-07T06:52:53;340.63;;;92.97;;
6499;SDS011;3283;52.330;9.772;2022-12-07T06:55:19;370.37;;;98.20;;
6499;SDS011;3283;52.330;9.772;2022-12-07T06:57:44;368.87;;;101.40;;
6499;SDS011;3283;52.330;9.772;2022-12-07T07:00:10;361.67;;;95.97;;
6499;SDS011;3283;52.330;9.772;2022-12-07T07:02:36;343.93;;;93.73;;
6499;SDS011;3283;52.330;9.772;2022-12-07T07:05:02;345.37;;;96.40;;
6499;SDS011;3283;52.330;9.772;2022-12-07T07:07:28;380.70;;;99.63;;
6499;SDS011;3283;52.330;9.772;2022-12-07T07:09:53;302.70;;;88.53;;
6499;SDS011;3283;52.330;9.772;2022-12-07T07:12:19;267.37;;;86.33;;
6499;SDS011;3283;52.330;9.772;2022-12-07T07:14:44;282.13;;;91.53;;
6499;SDS011;3283;52.330;9.772;2022-12-07T07:17:09;272.37;;;83.97;;
6499;SDS011;3283;52.330;9.772;2022-12-07T07:19:35;294.30;;;93.37;;
6499;SDS011;3283;52.330;9.772;2022-12-07T07:22:02;310.23;;;89.80;;
6499;SDS011;3283;52.330;9.772;2022-12-07T07:24:27;302.97;;;90.23;;
6499;SDS011;3283;52.330;9.772;2022-12-07T07:26:53;295.17;;;96.13;;
6499;SDS011;3283;52.330;9.772;2022-12-07T07:29:18;274.57;;;92.77;;
6499;SDS011;3283;52.330;9.772;2022-12-07T07:31:44;184.50;;;78.20;;
6499;SDS011;3283;52.330;9.772;2022-12-07T07:34:09;69.07;;;44.80;;
6499;SDS011;3283;52.330;9.772;2022-12-07T07:36:34;58.37;;;40.77;;
6499;SDS011;3283;52.330;9.772;2022-12-07T07:39:00;67.43;;;41.10;;
6499;SDS011;3283;52.330;9.772;2022-12-07T07:41:25;101.73;;;60.80;;
6499;SDS011;3283;52.330;9.772;2022-12-07T07:43:51;173.90;;;93.53;;
6499;SDS011;3283;52.330;9.772;2022-12-07T07:46:16;132.10;;;68.87;;
6499;SDS011;3283;52.330;9.772;2022-12-07T07:48:41;163.23;;;79.90;;
6499;SDS011;3283;52.330;9.772;2022-12-07T07:51:07;188.40;;;78.00;;
6499;SDS011;3283;52.330;9.772;2022-12-07T07:53:34;200.53;;;80.10;;
6499;SDS011;3283;52.330;9.772;2022-12-07T07:55:59;216.60;;;87.57;;
6499;SDS011;3283;52.330;9.772;2022-12-07T07:58:25;227.07;;;87.17;;
6499;SDS011;3283;52.330;9.772;2022-12-07T08:00:50;231.43;;;80.47;;
6499;SDS011;3283;52.330;9.772;2022-12-07T08:03:16;280.83;;;103.20;;
6499;SDS011;3283;52.330;9.772;2022-12-07T08:05:42;267.23;;;91.80;;
6499;SDS011;3283;52.330;9.772;2022-12-07T08:08:08;273.33;;;90.43;;
6499;SDS011;3283;52.330;9.772;2022-12-07T08:10:34;275.93;;;90.97;;
6499;SDS011;3283;52.330;9.772;2022-12-07T08:13:00;299.97;;;94.67;;
6499;SDS011;3283;52.330;9.772;2022-12-07T08:15:39;321.47;;;92.87;;
6499;SDS011;3283;52.330;9.772;2022-12-07T08:18:07;335.87;;;94.70;;
6499;SDS011;3283;52.330;9.772;2022-12-07T08:20:33;342.73;;;96.57;;
6499;SDS011;3283;52.330;9.772;2022-12-07T08:23:00;322.87;;;94.10;;
6499;SDS011;3283;52.330;9.772;2022-12-07T08:25:26;345.73;;;105.07;;
6499;SDS011;3283;52.330;9.772;2022-12-07T08:27:52;351.33;;;104.33;;
6499;SDS011;3283;52.330;9.772;2022-12-07T08:30:21;366.00;;;105.80;;
6499;SDS011;3283;52.330;9.772;2022-12-07T08:32:47;339.17;;;95.80;;
6499;SDS011;3283;52.330;9.772;2022-12-07T08:35:13;351.43;;;95.93;;
6499;SDS011;3283;52.330;9.772;2022-12-07T08:37:39;274.87;;;76.53;;
6499;SDS011;3283;52.330;9.772;2022-12-07T08:40:06;347.70;;;103.00;;
6499;SDS011;3283;52.330;9.772;2022-12-07T08:42:33;341.70;;;94.80;;
6499;SDS011;3283;52.330;9.772;2022-12-07T08:45:09;357.40;;;96.40;;
6499;SDS011;3283;52.330;9.772;2022-12-07T08:47:36;332.23;;;95.93;;
6499;SDS011;3283;52.330;9.772;2022-12-07T08:50:05;371.37;;;99.73;;
6499;SDS011;3283;52.330;9.772;2022-12-07T08:52:34;323.47;;;97.23;;
6499;SDS011;3283;52.330;9.772;2022-12-07T08:55:01;355.73;;;95.00;;
6499;SDS011;3283;52.330;9.772;2022-12-07T08:57:28;359.40;;;95.77;;
6499;SDS011;3283;52.330;9.772;2022-12-07T08:59:54;367.53;;;101.17;;
6499;SDS011;3283;52.330;9.772;2022-12-07T09:02:20;169.07;;;72.43;;
6499;SDS011;3283;52.330;9.772;2022-12-07T09:04:48;251.73;;;93.50;;
6499;SDS011;3283;52.330;9.772;2022-12-07T09:07:14;277.23;;;89.50;;
6499;SDS011;3283;52.330;9.772;2022-12-07T09:09:40;248.53;;;83.17;;
6499;SDS011;3283;52.330;9.772;2022-12-07T09:12:05;255.63;;;85.60;;
6499;SDS011;3283;52.330;9.772;2022-12-07T09:14:31;267.30;;;90.23;;
6499;SDS011;3283;52.330;9.772;2022-12-07T09:17:15;264.73;;;89.47;;
6499;SDS011;3283;52.330;9.772;2022-12-07T09:19:40;273.10;;;91.70;;
6499;SDS011;3283;52.330;9.772;2022-12-07T09:22:07;282.90;;;94.50;;
6499;SDS011;3283;52.330;9.772;2022-12-07T09:24:33;279.67;;;92.27;;
6499;SDS011;3283;52.330;9.772;2022-12-07T09:26:59;279.73;;;93.73;;
6499;SDS011;3283;52.330;9.772;2022-12-07T09:29:25;282.93;;;90.47;;
6499;SDS011;3283;52.330;9.772;2022-12-07T09:31:51;298.47;;;95.40;;
6499;SDS011;3283;52.330;9.772;2022-12-07T09:34:16;283.13;;;85.63;;
6499;SDS011;3283;52.330;9.772;2022-12-07T09:36:42;277.93;;;89.07;;
6499;SDS011;3283;52.330;9.772;2022-12-07T09:39:08;283.50;;;90.13;;
6499;SDS011;3283;52.330;9.772;2022-12-07T09:41:36;280.67;;;90.07;;
6499;SDS011;3283;52.330;9.772;2022-12-07T09:44:10;291.23;;;87.43;;
6499;SDS011;3283;52.330;9.772;2022-12-07T09:46:39;308.43;;;94.33;;
6499;SDS011;3283;52.330;9.772;2022-12-07T09:49:08;283.03;;;83.90;;
6499;SDS011;3283;52.330;9.772;2022-12-07T09:51:41;299.70;;;88.33;;
6499;SDS011;3283;52.330;9.772;2022-12-07T09:54:07;310.13;;;95.83;;
6499;SDS011;3283;52.330;9.772;2022-12-07T09:56:38;304.23;;;92.93;;
6499;SDS011;3283;52.330;9.772;2022-12-07T09:59:04;305.67;;;94.50;;
6499;SDS011;3283;52.330;9.772;2022-12-07T10:01:30;290.43;;;90.43;;
6499;SDS011;3283;52.330;9.772;2022-12-07T10:04:14;338.73;;;109.60;;
6499;SDS011;3283;52.330;9.772;2022-12-07T10:06:46;312.73;;;99.30;;
6499;SDS011;3283;52.330;9.772;2022-12-07T10:09:13;309.63;;;97.27;;
6499;SDS011;3283;52.330;9.772;2022-12-07T10:12:13;297.50;;;89.40;;
6499;SDS011;3283;52.330;9.772;2022-12-07T10:17:41;315.97;;;101.23;;
6499;SDS011;3283;52.330;9.772;2022-12-07T10:20:25;317.07;;;100.50;;
6499;SDS011;3283;52.330;9.772;2022-12-07T10:22:59;305.27;;;97.80;;
6499;SDS011;3283;52.330;9.772;2022-12-07T10:25:29;318.60;;;96.47;;
6499;SDS011;3283;52.330;9.772;2022-12-07T10:28:10;318.53;;;97.70;;
6499;SDS011;3283;52.330;9.772;2022-12-07T10:35:59;309.97;;;94.73;;
6499;SDS011;3283;52.330;9.772;2022-12-07T10:38:26;306.30;;;90.47;;
6499;SDS011;3283;52.330;9.772;2022-12-07T10:41:06;303.70;;;86.40;;
6499;SDS011;3283;52.330;9.772;2022-12-07T10:43:32;323.77;;;102.77;;
6499;SDS011;3283;52.330;9.772;2022-12-07T10:46:05;296.00;;;90.77;;
6499;SDS011;3283;52.330;9.772;2022-12-07T10:48:57;300.23;;;91.60;;
6499;SDS011;3283;52.330;9.772;2022-12-07T11:02:41;321.03;;;95.70;;
6499;SDS011;3283;52.330;9.772;2022-12-07T11:05:28;319.90;;;95.70;;
6499;SDS011;3283;52.330;9.772;2022-12-07T11:08:19;325.80;;;96.17;;
6499;SDS011;3283;52.330;9.772;2022-12-07T11:11:22;315.73;;;90.70;;
6499;SDS011;3283;52.330;9.772;2022-12-07T11:14:05;330.67;;;97.63;;
6499;SDS011;3283;52.330;9.772;2022-12-07T11:25:36;300.57;;;92.50;;
6499;SDS011;3283;52.330;9.772;2022-12-07T11:41:29;272.37;;;82.80;;
6499;SDS011;3283;52.330;9.772;2022-12-07T11:44:06;294.17;;;95.33;;
6499;SDS011;3283;52.330;9.772;2022-12-07T11:47:20;267.70;;;83.50;;
6499;SDS011;3283;52.330;9.772;2022-12-07T11:55:18;270.07;;;82.87;;
6499;SDS011;3283;52.330;9.772;2022-12-07T11:57:45;269.20;;;79.90;;
6499;SDS011;3283;52.330;9.772;2022-12-07T12:00:17;295.70;;;90.77;;
6499;SDS011;3283;52.330;9.772;2022-12-07T12:02:52;276.37;;;84.10;;
6499;SDS011;3283;52.330;9.772;2022-12-07T12:05:23;293.70;;;89.37;;
6499;SDS011;3283;52.330;9.772;2022-12-07T12:08:06;281.17;;;85.87;;
6499;SDS011;3283;52.330;9.772;2022-12-07T12:11:00;282.17;;;87.17;;
6499;SDS011;3283;52.330;9.772;2022-12-07T12:16:00;288.27;;;86.70;;
6499;SDS011;3283;52.330;9.772;2022-12-07T12:18:34;290.47;;;92.17;;
6499;SDS011;3283;52.330;9.772;2022-12-07T12:21:12;284.67;;;88.03;;
6499;SDS011;3283;52.330;9.772;2022-12-07T12:23:56;297.57;;;90.27;;
6499;SDS011;3283;52.330;9.772;2022-12-07T12:26:27;293.13;;;85.17;;
6499;SDS011;3283;52.330;9.772;2022-12-07T12:28:58;278.43;;;85.70;;
6499;SDS011;3283;52.330;9.772;2022-12-07T12:31:34;294.43;;;88.43;;
6499;SDS011;3283;52.330;9.772;2022-12-07T12:34:02;291.53;;;90.10;;
6499;SDS011;3283;52.330;9.772;2022-12-07T12:39:14;64.10;;;35.43;;
6499;SDS011;3283;52.330;9.772;2022-12-07T12:51:47;30.27;;;7.00;;
6499;SDS011;3283;52.330;9.772;2022-12-07T12:59:34;27.60;;;6.00;;
6499;SDS011;3283;52.330;9.772;2022-12-07T13:04:37;26.47;;;6.27;;
6499;SDS011;3283;52.330;9.772;2022-12-07T13:07:49;39.57;;;6.43;;
6499;SDS011;3283;52.330;9.772;2022-12-07T13:15:37;24.07;;;5.83;;
6499;SDS011;3283;52.330;9.772;2022-12-07T13:20:56;32.40;;;7.17;;
6499;SDS011;3283;52.330;9.772;2022-12-07T13:23:26;26.00;;;6.07;;
6499;SDS011;3283;52.330;9.772;2022-12-07T13:28:52;39.23;;;7.63;;
6499;SDS011;3283;52.330;9.772;2022-12-07T13:34:00;44.27;;;8.87;;
6499;SDS011;3283;52.330;9.772;2022-12-07T13:36:29;29.77;;;6.70;;
6499;SDS011;3283;52.330;9.772;2022-12-07T13:39:14;35.93;;;7.83;;
6499;SDS011;3283;52.330;9.772;2022-12-07T13:41:43;25.60;;;6.43;;
6499;SDS011;3283;52.330;9.772;2022-12-07T13:44:13;33.83;;;7.37;;
6499;SDS011;3283;52.330;9.772;2022-12-07T13:46:43;33.93;;;6.80;;
6499;SDS011;3283;52.330;9.772;2022-12-07T13:49:15;26.30;;;5.97;;
6499;SDS011;3283;52.330;9.772;2022-12-07T13:51:47;41.07;;;8.63;;
6499;SDS011;3283;52.330;9.772;2022-12-07T13:54:13;41.83;;;8.93;;
6499;SDS011;3283;52.330;9.772;2022-12-07T13:56:40;43.87;;;8.87;;
6499;SDS011;3283;52.330;9.772;2022-12-07T13:59:16;32.17;;;7.17;;
6499;SDS011;3283;52.330;9.772;2022-12-07T14:01:50;32.17;;;7.33;;
6499;SDS011;3283;52.330;9.772;2022-12-07T14:04:27;42.30;;;9.00;;
6499;SDS011;3283;52.330;9.772;2022-12-07T14:06:54;33.47;;;6.70;;
6499;SDS011;3283;52.330;9.772;2022-12-07T14:11:45;35.40;;;8.33;;
6499;SDS011;3283;52.330;9.772;2022-12-07T14:14:14;36.47;;;9.27;;
6499;SDS011;3283;52.330;9.772;2022-12-07T14:16:42;48.83;;;11.63;;
6499;SDS011;3283;52.330;9.772;2022-12-07T14:24:58;45.97;;;12.40;;
6499;SDS011;3283;52.330;9.772;2022-12-07T14:27:47;39.90;;;12.20;;
6499;SDS011;3283;52.330;9.772;2022-12-07T14:30:21;47.13;;;12.40;;
6499;SDS011;3283;52.330;9.772;2022-12-07T14:33:01;35.40;;;12.27;;
6499;SDS011;3283;52.330;9.772;2022-12-07T14:35:29;49.73;;;19.67;;
6499;SDS011;3283;52.330;9.772;2022-12-07T14:37:55;49.67;;;21.93;;
6499;SDS011;3283;52.330;9.772;2022-12-07T14:40:26;41.40;;;19.60;;
6499;SDS011;3283;52.330;9.772;2022-12-07T14:43:03;50.13;;;25.10;;
6499;SDS011;3283;52.330;9.772;2022-12-07T14:45:31;42.60;;;18.60;;
6499;SDS011;3283;52.330;9.772;2022-12-07T14:47:57;36.70;;;19.30;;
6499;SDS011;3283;52.330;9.772;2022-12-07T14:50:22;49.27;;;21.23;;
6499;SDS011;3283;52.330;9.772;2022-12-07T14:52:50;35.03;;;20.00;;
6499;SDS011;3283;52.330;9.772;2022-12-07T14:57:52;40.50;;;18.60;;
6499;SDS011;3283;52.330;9.772;2022-12-07T15:00:18;35.00;;;21.53;;
6499;SDS011;3283;52.330;9.772;2022-12-07T15:02:45;53.10;;;25.50;;
6499;SDS011;3283;52.330;9.772;2022-12-07T15:05:12;46.47;;;24.57;;
6499;SDS011;3283;52.330;9.772;2022-12-07T15:07:38;44.63;;;22.70;;
6499;SDS011;3283;52.330;9.772;2022-12-07T15:10:04;37.50;;;21.93;;
6499;SDS011;3283;52.330;9.772;2022-12-07T15:12:30;43.17;;;25.37;;
6499;SDS011;3283;52.330;9.772;2022-12-07T15:14:56;56.43;;;28.83;;
6499;SDS011;3283;52.330;9.772;2022-12-07T15:17:21;52.10;;;26.77;;
6499;SDS011;3283;52.330;9.772;2022-12-07T15:19:47;60.70;;;32.57;;
6499;SDS011;3283;52.330;9.772;2022-12-07T15:22:12;51.27;;;29.70;;
6499;SDS011;3283;52.330;9.772;2022-12-07T15:24:38;64.20;;;32.70;;
6499;SDS011;3283;52.330;9.772;2022-12-07T15:27:03;52.57;;;34.43;;
6499;SDS011;3283;52.330;9.772;2022-12-07T15:29:29;64.70;;;35.37;;
6499;SDS011;3283;52.330;9.772;2022-12-07T15:31:55;67.37;;;36.10;;
6499;SDS011;3283;52.330;9.772;2022-12-07T15:34:20;54.13;;;29.83;;
6499;SDS011;3283;52.330;9.772;2022-12-07T15:36:46;54.37;;;31.90;;
6499;SDS011;3283;52.330;9.772;2022-12-07T15:39:11;77.93;;;40.83;;
6499;SDS011;3283;52.330;9.772;2022-12-07T15:41:37;83.27;;;45.83;;
6499;SDS011;3283;52.330;9.772;2022-12-07T15:44:02;79.37;;;40.27;;
6499;SDS011;3283;52.330;9.772;2022-12-07T15:46:46;70.73;;;43.43;;
6499;SDS011;3283;52.330;9.772;2022-12-07T15:49:14;85.53;;;46.43;;
6499;SDS011;3283;52.330;9.772;2022-12-07T15:51:42;85.27;;;47.97;;
6499;SDS011;3283;52.330;9.772;2022-12-07T15:54:12;116.20;;;55.30;;
6499;SDS011;3283;52.330;9.772;2022-12-07T15:56:46;98.07;;;53.13;;
6499;SDS011;3283;52.330;9.772;2022-12-07T15:59:12;120.63;;;63.23;;
6499;SDS011;3283;52.330;9.772;2022-12-07T16:01:38;119.37;;;62.17;;
6499;SDS011;3283;52.330;9.772;2022-12-07T16:04:03;98.23;;;57.83;;
6499;SDS011;3283;52.330;9.772;2022-12-07T16:06:28;128.90;;;65.60;;
6499;SDS011;3283;52.330;9.772;2022-12-07T16:08:54;116.43;;;59.23;;
6499;SDS011;3283;52.330;9.772;2022-12-07T16:11:20;114.67;;;59.10;;
6499;SDS011;3283;52.330;9.772;2022-12-07T16:13:45;152.27;;;71.33;;
6499;SDS011;3283;52.330;9.772;2022-12-07T16:16:12;37.73;;;12.40;;
6499;SDS011;3283;52.330;9.772;2022-12-07T16:18:39;40.00;;;12.20;;
6499;SDS011;3283;52.330;9.772;2022-12-07T16:21:04;47.13;;;13.27;;
6499;SDS011;3283;52.330;9.772;2022-12-07T16:23:30;61.70;;;21.83;;
6499;SDS011;3283;52.330;9.772;2022-12-07T16:26:02;44.20;;;25.50;;
6499;SDS011;3283;52.330;9.772;2022-12-07T16:28:29;46.17;;;15.90;;
6499;SDS011;3283;52.330;9.772;2022-12-07T16:31:11;41.50;;;15.17;;
6499;SDS011;3283;52.330;9.772;2022-12-07T16:33:38;49.27;;;19.83;;
6499;SDS011;3283;52.330;9.772;2022-12-07T16:36:05;49.73;;;20.70;;
6499;SDS011;3283;52.330;9.772;2022-12-07T16:38:31;47.77;;;19.37;;
6499;SDS011;3283;52.330;9.772;2022-12-07T16:40:57;49.17;;;19.00;;
6499;SDS011;3283;52.330;9.772;2022-12-07T16:43:22;38.17;;;14.67;;
6499;SDS011;3283;52.330;9.772;2022-12-07T16:45:48;40.50;;;15.40;;
6499;SDS011;3283;52.330;9.772;2022-12-07T16:48:14;43.93;;;16.60;;
6499;SDS011;3283;52.330;9.772;2022-12-07T16:50:40;43.63;;;19.27;;
6499;SDS011;3283;52.330;9.772;2022-12-07T16:53:07;32.60;;;14.37;;
6499;SDS011;3283;52.330;9.772;2022-12-07T16:55:40;52.57;;;20.73;;
6499;SDS011;3283;52.330;9.772;2022-12-07T16:58:07;60.77;;;25.93;;
6499;SDS011;3283;52.330;9.772;2022-12-07T17:00:33;46.13;;;21.20;;
6499;SDS011;3283;52.330;9.772;2022-12-07T17:02:59;50.40;;;23.90;;
6499;SDS011;3283;52.330;9.772;2022-12-07T17:05:25;151.53;;;51.97;;
6499;SDS011;3283;52.330;9.772;2022-12-07T17:07:53;50.13;;;24.17;;
6499;SDS011;3283;52.330;9.772;2022-12-07T17:10:19;71.33;;;25.53;;
6499;SDS011;3283;52.330;9.772;2022-12-07T17:12:44;54.50;;;22.57;;
6499;SDS011;3283;52.330;9.772;2022-12-07T17:15:10;42.83;;;19.27;;
6499;SDS011;3283;52.330;9.772;2022-12-07T17:17:51;50.27;;;20.80;;
6499;SDS011;3283;52.330;9.772;2022-12-07T17:20:20;38.50;;;19.70;;
6499;SDS011;3283;52.330;9.772;2022-12-07T17:22:48;43.43;;;22.33;;
6499;SDS011;3283;52.330;9.772;2022-12-07T17:25:14;56.50;;;25.13;;
6499;SDS011;3283;52.330;9.772;2022-12-07T17:27:40;50.33;;;25.53;;
6499;SDS011;3283;52.330;9.772;2022-12-07T17:30:06;47.80;;;25.87;;
6499;SDS011;3283;52.330;9.772;2022-12-07T17:32:33;48.20;;;26.30;;
6499;SDS011;3283;52.330;9.772;2022-12-07T17:34:58;52.37;;;26.30;;
6499;SDS011;3283;52.330;9.772;2022-12-07T17:37:24;38.50;;;24.77;;
6499;SDS011;3283;52.330;9.772;2022-12-07T17:39:51;70.60;;;31.90;;
6499;SDS011;3283;52.330;9.772;2022-12-07T17:42:17;47.30;;;29.57;;
6499;SDS011;3283;52.330;9.772;2022-12-07T17:45:00;45.73;;;27.80;;
6499;SDS011;3283;52.330;9.772;2022-12-07T17:47:26;53.83;;;30.40;;
6499;SDS011;3283;52.330;9.772;2022-12-07T17:49:52;54.47;;;36.27;;
6499;SDS011;3283;52.330;9.772;2022-12-07T17:52:17;54.00;;;35.40;;
6499;SDS011;3283;52.330;9.772;2022-12-07T17:55:02;57.37;;;34.80;;
6499;SDS011;3283;52.330;9.772;2022-12-07T17:57:28;61.00;;;38.53;;
6499;SDS011;3283;52.330;9.772;2022-12-07T17:59:54;70.53;;;40.73;;
6499;SDS011;3283;52.330;9.772;2022-12-07T18:02:19;47.33;;;32.20;;
6499;SDS011;3283;52.330;9.772;2022-12-07T18:04:45;52.53;;;44.77;;
6499;SDS011;3283;52.330;9.772;2022-12-07T18:07:11;130.27;;;54.87;;
6499;SDS011;3283;52.330;9.772;2022-12-07T18:09:37;56.07;;;37.13;;
6499;SDS011;3283;52.330;9.772;2022-12-07T18:12:03;65.10;;;42.80;;
6499;SDS011;3283;52.330;9.772;2022-12-07T18:14:29;74.97;;;42.17;;
6499;SDS011;3283;52.330;9.772;2022-12-07T18:16:55;86.60;;;48.20;;
6499;SDS011;3283;52.330;9.772;2022-12-07T18:19:20;73.30;;;42.67;;
6499;SDS011;3283;52.330;9.772;2022-12-07T18:21:46;68.67;;;46.70;;
6499;SDS011;3283;52.330;9.772;2022-12-07T18:24:13;77.37;;;43.80;;
6499;SDS011;3283;52.330;9.772;2022-12-07T18:26:40;93.57;;;50.80;;
6499;SDS011;3283;52.330;9.772;2022-12-07T18:29:07;82.27;;;47.23;;
6499;SDS011;3283;52.330;9.772;2022-12-07T18:31:37;83.67;;;48.47;;
6499;SDS011;3283;52.330;9.772;2022-12-07T18:34:03;101.43;;;53.50;;
6499;SDS011;3283;52.330;9.772;2022-12-07T18:36:32;109.40;;;70.40;;
6499;SDS011;3283;52.330;9.772;2022-12-07T18:38:58;88.13;;;54.27;;
6499;SDS011;3283;52.330;9.772;2022-12-07T18:41:24;93.17;;;55.20;;
6499;SDS011;3283;52.330;9.772;2022-12-07T18:43:49;130.37;;;66.03;;
6499;SDS011;3283;52.330;9.772;2022-12-07T18:46:15;99.23;;;59.10;;
6499;SDS011;3283;52.330;9.772;2022-12-07T18:48:43;89.27;;;52.40;;
6499;SDS011;3283;52.330;9.772;2022-12-07T18:51:10;101.57;;;59.80;;
6499;SDS011;3283;52.330;9.772;2022-12-07T18:53:36;100.37;;;53.27;;
6499;SDS011;3283;52.330;9.772;2022-12-07T18:56:03;93.03;;;53.10;;
6499;SDS011;3283;52.330;9.772;2022-12-07T18:58:30;111.63;;;59.57;;
6499;SDS011;3283;52.330;9.772;2022-12-07T19:00:57;104.40;;;55.83;;
6499;SDS011;3283;52.330;9.772;2022-12-07T19:03:23;95.87;;;56.10;;
6499;SDS011;3283;52.330;9.772;2022-12-07T19:05:49;104.27;;;58.90;;
6499;SDS011;3283;52.330;9.772;2022-12-07T19:08:15;123.03;;;63.40;;
6499;SDS011;3283;52.330;9.772;2022-12-07T19:10:40;153.23;;;74.27;;
6499;SDS011;3283;52.330;9.772;2022-12-07T19:13:06;119.53;;;60.83;;
6499;SDS011;3283;52.330;9.772;2022-12-07T19:15:32;123.17;;;62.47;;
6499;SDS011;3283;52.330;9.772;2022-12-07T19:17:57;110.60;;;63.03;;
6499;SDS011;3283;52.330;9.772;2022-12-07T19:20:23;127.80;;;63.67;;
6499;SDS011;3283;52.330;9.772;2022-12-07T19:22:49;140.53;;;70.23;;
6499;SDS011;3283;52.330;9.772;2022-12-07T19:25:14;122.90;;;63.30;;
6499;SDS011;3283;52.330;9.772;2022-12-07T19:27:39;116.63;;;61.00;;
6499;SDS011;3283;52.330;9.772;2022-12-07T19:30:05;127.77;;;64.43;;
6499;SDS011;3283;52.330;9.772;2022-12-07T19:32:33;135.57;;;67.20;;
6499;SDS011;3283;52.330;9.772;2022-12-07T19:34:59;131.30;;;69.47;;
6499;SDS011;3283;52.330;9.772;2022-12-07T19:37:24;139.53;;;70.33;;
6499;SDS011;3283;52.330;9.772;2022-12-07T19:39:50;132.50;;;68.30;;
6499;SDS011;3283;52.330;9.772;2022-12-07T19:42:15;127.70;;;63.77;;
6499;SDS011;3283;52.330;9.772;2022-12-07T19:44:41;129.40;;;63.17;;
6499;SDS011;3283;52.330;9.772;2022-12-07T19:47:07;141.40;;;70.57;;
6499;SDS011;3283;52.330;9.772;2022-12-07T19:49:34;134.40;;;65.37;;
6499;SDS011;3283;52.330;9.772;2022-12-07T19:52:04;144.63;;;68.80;;
6499;SDS011;3283;52.330;9.772;2022-12-07T19:54:32;142.77;;;66.30;;
6499;SDS011;3283;52.330;9.772;2022-12-07T19:56:58;143.20;;;63.80;;
6499;SDS011;3283;52.330;9.772;2022-12-07T19:59:28;143.03;;;70.93;;
6499;SDS011;3283;52.330;9.772;2022-12-07T20:01:53;141.83;;;67.27;;
6499;SDS011;3283;52.330;9.772;2022-12-07T20:04:20;147.37;;;70.00;;
6499;SDS011;3283;52.330;9.772;2022-12-07T20:06:48;151.20;;;70.27;;
6499;SDS011;3283;52.330;9.772;2022-12-07T20:09:16;156.27;;;72.90;;
6499;SDS011;3283;52.330;9.772;2022-12-07T20:11:42;145.87;;;65.67;;
6499;SDS011;3283;52.330;9.772;2022-12-07T20:14:26;153.30;;;69.87;;
6499;SDS011;3283;52.330;9.772;2022-12-07T20:16:51;160.87;;;72.03;;
6499;SDS011;3283;52.330;9.772;2022-12-07T20:19:17;160.00;;;76.33;;
6499;SDS011;3283;52.330;9.772;2022-12-07T20:21:43;142.77;;;67.43;;
6499;SDS011;3283;52.330;9.772;2022-12-07T20:24:10;153.13;;;73.10;;
6499;SDS011;3283;52.330;9.772;2022-12-07T20:26:37;139.73;;;71.17;;
6499;SDS011;3283;52.330;9.772;2022-12-07T20:29:07;157.40;;;68.83;;
6499;SDS011;3283;52.330;9.772;2022-12-07T20:31:33;153.40;;;93.27;;
6499;SDS011;3283;52.330;9.772;2022-12-07T20:33:59;167.03;;;77.30;;
6499;SDS011;3283;52.330;9.772;2022-12-07T20:36:25;139.83;;;69.30;;
6499;SDS011;3283;52.330;9.772;2022-12-07T20:38:51;150.07;;;78.83;;
6499;SDS011;3283;52.330;9.772;2022-12-07T20:41:17;160.90;;;81.83;;
6499;SDS011;3283;52.330;9.772;2022-12-07T20:44:02;168.33;;;81.13;;
6499;SDS011;3283;52.330;9.772;2022-12-07T20:46:28;173.27;;;82.67;;
6499;SDS011;3283;52.330;9.772;2022-12-07T20:48:56;167.27;;;73.17;;
6499;SDS011;3283;52.330;9.772;2022-12-07T20:51:23;159.37;;;70.50;;
6499;SDS011;3283;52.330;9.772;2022-12-07T20:53:49;228.67;;;96.67;;
6499;SDS011;3283;52.330;9.772;2022-12-07T20:56:27;218.43;;;93.00;;
6499;SDS011;3283;52.330;9.772;2022-12-07T20:58:55;174.17;;;78.37;;
6499;SDS011;3283;52.330;9.772;2022-12-07T21:01:22;178.63;;;80.10;;
6499;SDS011;3283;52.330;9.772;2022-12-07T21:03:47;189.50;;;82.73;;
6499;SDS011;3283;52.330;9.772;2022-12-07T21:06:14;167.37;;;75.47;;
6499;SDS011;3283;52.330;9.772;2022-12-07T21:08:44;193.33;;;81.17;;
6499;SDS011;3283;52.330;9.772;2022-12-07T21:11:11;168.37;;;73.20;;
6499;SDS011;3283;52.330;9.772;2022-12-07T21:13:37;166.80;;;69.30;;
6499;SDS011;3283;52.330;9.772;2022-12-07T21:16:06;171.80;;;73.10;;
6499;SDS011;3283;52.330;9.772;2022-12-07T21:18:33;164.10;;;71.97;;
6499;SDS011;3283;52.330;9.772;2022-12-07T21:21:01;200.60;;;92.17;;
6499;SDS011;3283;52.330;9.772;2022-12-07T21:23:27;181.93;;;80.17;;
6499;SDS011;3283;52.330;9.772;2022-12-07T21:25:52;190.30;;;84.80;;